Terminal Aerodrome Forecast
Issued by NWS

Home | Current Version | Previous Version | Text Only | Print | Product List | Glossary On
Versions: 1 2 3 4 5 6 7 8 9 10 11 12 13
000
FTUS43 KILX 301136
TAFDEC
TAF
KDEC 301136Z 3012/3112 20003KT 6SM BR SCT015 OVC050
      TEMPO 3012/3014 3SM BR BKN015
     FM301400 20003KT 4SM BR BKN015
     FM301600 20005KT P6SM BKN050
     FM310100 17004KT P6SM SCT250
     FM310600 18004KT 4SM BR SCT250=

USA.gov is the U.S. government's official web portal to all federal, state and local government web resources and services.